Aviation Digital Data Service (ADDS)

Output produced by METARs form (0528 UTC 31 July 2016)
found at http://aviationweather.gov/adds/metars/
 
KDEN 310247Z 3103/0106 36006KT P6SM FEW100 BKN200 
     FM310400 16007KT P6SM SCT100 BKN200 
     FM310600 19012KT P6SM SCT150 BKN200 
     FM311000 22009KT P6SM FEW150 BKN200 
     FM311400 25007KT P6SM FEW150 BKN200 
     FM311800 02007KT P6SM SCT100 BKN200 
     PROB30 3121/0101 VRB20G30KT -TSRA BKN080CB 
     FM010100 24010KT P6SM SCT100 BKN200